sensor_id;sensor_type;location;lat;lon;timestamp;P1;durP1;ratioP1;P2;durP2;ratioP2
34491;SDS011;20737;49.908;8.126;2022-11-20T00:00:18;26.00;;;12.43;;
34491;SDS011;20737;49.908;8.126;2022-11-20T00:02:45;26.37;;;11.03;;
34491;SDS011;20737;49.908;8.126;2022-11-20T00:05:13;26.27;;;12.50;;
34491;SDS011;20737;49.908;8.126;2022-11-20T00:07:40;24.37;;;12.00;;
34491;SDS011;20737;49.908;8.126;2022-11-20T00:10:07;25.97;;;12.43;;
34491;SDS011;20737;49.908;8.126;2022-11-20T00:12:34;26.20;;;12.67;;
34491;SDS011;20737;49.908;8.126;2022-11-20T00:15:01;23.97;;;11.40;;
34491;SDS011;20737;49.908;8.126;2022-11-20T00:17:27;24.90;;;10.97;;
34491;SDS011;20737;49.908;8.126;2022-11-20T00:19:54;25.63;;;12.47;;
34491;SDS011;20737;49.908;8.126;2022-11-20T00:22:22;25.10;;;12.30;;
34491;SDS011;20737;49.908;8.126;2022-11-20T00:24:49;26.90;;;12.23;;
34491;SDS011;20737;49.908;8.126;2022-11-20T00:27:16;26.13;;;11.73;;
34491;SDS011;20737;49.908;8.126;2022-11-20T00:29:42;30.07;;;12.07;;
34491;SDS011;20737;49.908;8.126;2022-11-20T00:32:09;30.27;;;12.23;;
34491;SDS011;20737;49.908;8.126;2022-11-20T00:34:36;31.23;;;12.53;;
34491;SDS011;20737;49.908;8.126;2022-11-20T00:37:02;28.00;;;13.27;;
34491;SDS011;20737;49.908;8.126;2022-11-20T00:39:31;25.17;;;11.80;;
34491;SDS011;20737;49.908;8.126;2022-11-20T00:41:57;29.83;;;13.70;;
34491;SDS011;20737;49.908;8.126;2022-11-20T00:44:24;28.70;;;12.50;;
34491;SDS011;20737;49.908;8.126;2022-11-20T00:46:51;29.40;;;12.97;;
34491;SDS011;20737;49.908;8.126;2022-11-20T00:49:18;24.70;;;11.97;;
34491;SDS011;20737;49.908;8.126;2022-11-20T00:51:44;28.03;;;12.57;;
34491;SDS011;20737;49.908;8.126;2022-11-20T00:54:11;30.80;;;12.13;;
34491;SDS011;20737;49.908;8.126;2022-11-20T00:56:39;26.13;;;11.97;;
34491;SDS011;20737;49.908;8.126;2022-11-20T00:59:08;26.40;;;11.70;;
34491;SDS011;20737;49.908;8.126;2022-11-20T01:01:36;27.97;;;13.23;;
34491;SDS011;20737;49.908;8.126;2022-11-20T01:04:03;27.60;;;12.40;;
34491;SDS011;20737;49.908;8.126;2022-11-20T01:06:30;24.53;;;12.07;;
34491;SDS011;20737;49.908;8.126;2022-11-20T01:09:00;26.60;;;11.20;;
34491;SDS011;20737;49.908;8.126;2022-11-20T01:11:28;30.67;;;13.13;;
34491;SDS011;20737;49.908;8.126;2022-11-20T01:13:58;32.47;;;13.30;;
34491;SDS011;20737;49.908;8.126;2022-11-20T01:16:26;26.17;;;12.30;;
34491;SDS011;20737;49.908;8.126;2022-11-20T01:18:55;29.13;;;12.63;;
34491;SDS011;20737;49.908;8.126;2022-11-20T01:21:24;28.50;;;13.10;;
34491;SDS011;20737;49.908;8.126;2022-11-20T01:23:52;26.63;;;11.90;;
34491;SDS011;20737;49.908;8.126;2022-11-20T01:26:20;31.17;;;12.83;;
34491;SDS011;20737;49.908;8.126;2022-11-20T01:28:48;34.33;;;13.23;;
34491;SDS011;20737;49.908;8.126;2022-11-20T01:31:17;31.47;;;12.20;;
34491;SDS011;20737;49.908;8.126;2022-11-20T01:33:47;30.07;;;13.13;;
34491;SDS011;20737;49.908;8.126;2022-11-20T01:36:16;31.33;;;12.77;;
34491;SDS011;20737;49.908;8.126;2022-11-20T01:38:43;33.07;;;13.10;;
34491;SDS011;20737;49.908;8.126;2022-11-20T01:41:12;30.63;;;11.97;;
34491;SDS011;20737;49.908;8.126;2022-11-20T01:44:00;27.90;;;12.77;;
34491;SDS011;20737;49.908;8.126;2022-11-20T01:46:29;31.20;;;13.40;;
34491;SDS011;20737;49.908;8.126;2022-11-20T01:48:58;29.47;;;13.40;;
34491;SDS011;20737;49.908;8.126;2022-11-20T01:51:29;29.67;;;12.50;;
34491;SDS011;20737;49.908;8.126;2022-11-20T01:54:00;32.37;;;13.77;;
34491;SDS011;20737;49.908;8.126;2022-11-20T01:56:33;28.43;;;13.00;;
34491;SDS011;20737;49.908;8.126;2022-11-20T01:59:03;28.17;;;13.13;;
34491;SDS011;20737;49.908;8.126;2022-11-20T02:01:34;34.00;;;13.50;;
34491;SDS011;20737;49.908;8.126;2022-11-20T02:04:01;32.90;;;13.17;;
34491;SDS011;20737;49.908;8.126;2022-11-20T02:06:30;28.47;;;12.93;;
34491;SDS011;20737;49.908;8.126;2022-11-20T02:09:01;29.57;;;12.63;;
34491;SDS011;20737;49.908;8.126;2022-11-20T02:11:29;33.47;;;13.23;;
34491;SDS011;20737;49.908;8.126;2022-11-20T02:13:56;29.17;;;12.23;;
34491;SDS011;20737;49.908;8.126;2022-11-20T02:16:23;23.27;;;12.50;;
34491;SDS011;20737;49.908;8.126;2022-11-20T02:18:53;27.60;;;12.13;;
34491;SDS011;20737;49.908;8.126;2022-11-20T02:21:24;31.13;;;12.53;;
34491;SDS011;20737;49.908;8.126;2022-11-20T02:24:04;31.37;;;13.07;;
34491;SDS011;20737;49.908;8.126;2022-11-20T02:26:34;28.37;;;13.13;;
34491;SDS011;20737;49.908;8.126;2022-11-20T02:29:08;31.10;;;13.10;;
34491;SDS011;20737;49.908;8.126;2022-11-20T02:31:36;30.63;;;13.50;;
34491;SDS011;20737;49.908;8.126;2022-11-20T02:34:04;30.70;;;13.03;;
34491;SDS011;20737;49.908;8.126;2022-11-20T02:36:31;28.27;;;12.90;;
34491;SDS011;20737;49.908;8.126;2022-11-20T02:39:00;30.03;;;13.63;;
34491;SDS011;20737;49.908;8.126;2022-11-20T02:41:32;30.87;;;12.83;;
34491;SDS011;20737;49.908;8.126;2022-11-20T02:44:00;31.60;;;13.10;;
34491;SDS011;20737;49.908;8.126;2022-11-20T02:46:27;28.97;;;13.53;;
34491;SDS011;20737;49.908;8.126;2022-11-20T02:48:53;29.67;;;14.73;;
34491;SDS011;20737;49.908;8.126;2022-11-20T02:51:20;32.63;;;14.70;;
34491;SDS011;20737;49.908;8.126;2022-11-20T02:53:47;27.60;;;12.07;;
34491;SDS011;20737;49.908;8.126;2022-11-20T02:56:13;34.47;;;14.27;;
34491;SDS011;20737;49.908;8.126;2022-11-20T02:58:42;27.10;;;13.10;;
34491;SDS011;20737;49.908;8.126;2022-11-20T03:01:09;35.90;;;15.00;;
34491;SDS011;20737;49.908;8.126;2022-11-20T03:03:36;33.77;;;13.23;;
34491;SDS011;20737;49.908;8.126;2022-11-20T03:06:03;31.80;;;14.37;;
34491;SDS011;20737;49.908;8.126;2022-11-20T03:08:30;34.43;;;12.40;;
34491;SDS011;20737;49.908;8.126;2022-11-20T03:10:56;33.50;;;13.87;;
34491;SDS011;20737;49.908;8.126;2022-11-20T03:13:27;34.93;;;13.80;;
34491;SDS011;20737;49.908;8.126;2022-11-20T03:15:55;35.13;;;14.13;;
34491;SDS011;20737;49.908;8.126;2022-11-20T03:18:22;32.27;;;13.53;;
34491;SDS011;20737;49.908;8.126;2022-11-20T03:20:49;36.27;;;14.87;;
34491;SDS011;20737;49.908;8.126;2022-11-20T03:23:16;36.17;;;15.97;;
34491;SDS011;20737;49.908;8.126;2022-11-20T03:25:42;27.00;;;13.20;;
34491;SDS011;20737;49.908;8.126;2022-11-20T03:28:10;41.40;;;15.40;;
34491;SDS011;20737;49.908;8.126;2022-11-20T03:30:36;37.87;;;14.53;;
34491;SDS011;20737;49.908;8.126;2022-11-20T03:33:04;35.17;;;13.10;;
34491;SDS011;20737;49.908;8.126;2022-11-20T03:35:31;33.60;;;14.60;;
34491;SDS011;20737;49.908;8.126;2022-11-20T03:37:58;36.57;;;14.27;;
34491;SDS011;20737;49.908;8.126;2022-11-20T03:40:24;36.50;;;13.60;;
34491;SDS011;20737;49.908;8.126;2022-11-20T03:42:51;33.53;;;12.60;;
34491;SDS011;20737;49.908;8.126;2022-11-20T03:45:18;30.83;;;14.10;;
34491;SDS011;20737;49.908;8.126;2022-11-20T03:47:45;39.47;;;13.63;;
34491;SDS011;20737;49.908;8.126;2022-11-20T03:50:13;31.87;;;13.30;;
34491;SDS011;20737;49.908;8.126;2022-11-20T03:52:41;32.37;;;12.60;;
34491;SDS011;20737;49.908;8.126;2022-11-20T03:55:08;34.43;;;14.50;;
34491;SDS011;20737;49.908;8.126;2022-11-20T03:57:35;31.23;;;13.23;;
34491;SDS011;20737;49.908;8.126;2022-11-20T04:00:02;35.37;;;12.80;;
34491;SDS011;20737;49.908;8.126;2022-11-20T04:02:29;37.43;;;14.10;;
34491;SDS011;20737;49.908;8.126;2022-11-20T04:04:56;36.20;;;14.37;;
34491;SDS011;20737;49.908;8.126;2022-11-20T04:07:24;36.57;;;14.33;;
34491;SDS011;20737;49.908;8.126;2022-11-20T04:09:51;42.93;;;16.50;;
34491;SDS011;20737;49.908;8.126;2022-11-20T04:12:17;36.03;;;13.63;;
34491;SDS011;20737;49.908;8.126;2022-11-20T04:14:44;35.87;;;13.17;;
34491;SDS011;20737;49.908;8.126;2022-11-20T04:17:11;37.97;;;14.83;;
34491;SDS011;20737;49.908;8.126;2022-11-20T04:19:37;32.20;;;13.63;;
34491;SDS011;20737;49.908;8.126;2022-11-20T04:22:04;36.27;;;13.50;;
34491;SDS011;20737;49.908;8.126;2022-11-20T04:24:32;37.60;;;14.53;;
34491;SDS011;20737;49.908;8.126;2022-11-20T04:26:59;41.63;;;15.73;;
34491;SDS011;20737;49.908;8.126;2022-11-20T04:29:26;30.80;;;12.73;;
34491;SDS011;20737;49.908;8.126;2022-11-20T04:31:52;39.73;;;14.57;;
34491;SDS011;20737;49.908;8.126;2022-11-20T04:34:19;44.20;;;14.13;;
34491;SDS011;20737;49.908;8.126;2022-11-20T04:36:46;29.27;;;12.60;;
34491;SDS011;20737;49.908;8.126;2022-11-20T04:39:13;31.53;;;12.87;;
34491;SDS011;20737;49.908;8.126;2022-11-20T04:41:42;29.73;;;13.20;;
34491;SDS011;20737;49.908;8.126;2022-11-20T04:44:09;33.57;;;14.67;;
34491;SDS011;20737;49.908;8.126;2022-11-20T04:46:37;36.53;;;14.03;;
34491;SDS011;20737;49.908;8.126;2022-11-20T04:49:05;30.43;;;13.47;;
34491;SDS011;20737;49.908;8.126;2022-11-20T04:51:32;29.40;;;13.17;;
34491;SDS011;20737;49.908;8.126;2022-11-20T04:53:59;33.33;;;14.23;;
34491;SDS011;20737;49.908;8.126;2022-11-20T04:56:26;33.43;;;13.80;;
34491;SDS011;20737;49.908;8.126;2022-11-20T04:58:55;34.47;;;14.00;;
34491;SDS011;20737;49.908;8.126;2022-11-20T05:01:22;27.23;;;12.17;;
34491;SDS011;20737;49.908;8.126;2022-11-20T05:03:50;35.47;;;13.63;;
34491;SDS011;20737;49.908;8.126;2022-11-20T05:06:17;35.77;;;14.17;;
34491;SDS011;20737;49.908;8.126;2022-11-20T05:08:46;33.40;;;13.73;;
34491;SDS011;20737;49.908;8.126;2022-11-20T05:11:13;35.07;;;13.33;;
34491;SDS011;20737;49.908;8.126;2022-11-20T05:13:41;35.93;;;14.33;;
34491;SDS011;20737;49.908;8.126;2022-11-20T05:16:09;37.13;;;13.77;;
34491;SDS011;20737;49.908;8.126;2022-11-20T05:18:39;31.17;;;11.87;;
34491;SDS011;20737;49.908;8.126;2022-11-20T05:21:06;38.83;;;14.53;;
34491;SDS011;20737;49.908;8.126;2022-11-20T05:23:35;31.37;;;13.70;;
34491;SDS011;20737;49.908;8.126;2022-11-20T05:26:02;36.50;;;14.87;;
34491;SDS011;20737;49.908;8.126;2022-11-20T05:28:32;32.97;;;12.97;;
34491;SDS011;20737;49.908;8.126;2022-11-20T05:31:06;31.73;;;12.50;;
34491;SDS011;20737;49.908;8.126;2022-11-20T05:33:36;32.97;;;12.43;;
34491;SDS011;20737;49.908;8.126;2022-11-20T05:36:05;30.43;;;13.37;;
34491;SDS011;20737;49.908;8.126;2022-11-20T05:38:32;30.27;;;12.90;;
34491;SDS011;20737;49.908;8.126;2022-11-20T05:41:03;34.50;;;13.27;;
34491;SDS011;20737;49.908;8.126;2022-11-20T05:43:31;39.37;;;14.17;;
34491;SDS011;20737;49.908;8.126;2022-11-20T05:45:59;36.20;;;14.87;;
34491;SDS011;20737;49.908;8.126;2022-11-20T05:48:27;31.20;;;13.10;;
34491;SDS011;20737;49.908;8.126;2022-11-20T05:50:54;32.43;;;12.90;;
34491;SDS011;20737;49.908;8.126;2022-11-20T05:53:22;33.33;;;13.87;;
34491;SDS011;20737;49.908;8.126;2022-11-20T05:55:55;35.20;;;13.23;;
34491;SDS011;20737;49.908;8.126;2022-11-20T05:58:22;34.60;;;13.70;;
34491;SDS011;20737;49.908;8.126;2022-11-20T06:00:49;34.83;;;14.13;;
34491;SDS011;20737;49.908;8.126;2022-11-20T06:03:16;32.93;;;13.63;;
34491;SDS011;20737;49.908;8.126;2022-11-20T06:05:44;36.53;;;14.13;;
34491;SDS011;20737;49.908;8.126;2022-11-20T06:08:11;33.70;;;12.83;;
34491;SDS011;20737;49.908;8.126;2022-11-20T06:10:38;34.63;;;13.60;;
34491;SDS011;20737;49.908;8.126;2022-11-20T06:13:04;32.00;;;12.83;;
34491;SDS011;20737;49.908;8.126;2022-11-20T06:15:31;34.63;;;14.07;;
34491;SDS011;20737;49.908;8.126;2022-11-20T06:17:58;35.57;;;13.67;;
34491;SDS011;20737;49.908;8.126;2022-11-20T06:20:24;34.17;;;12.67;;
34491;SDS011;20737;49.908;8.126;2022-11-20T06:22:53;32.07;;;13.30;;
34491;SDS011;20737;49.908;8.126;2022-11-20T06:25:19;38.03;;;14.13;;
34491;SDS011;20737;49.908;8.126;2022-11-20T06:27:46;33.00;;;13.13;;
34491;SDS011;20737;49.908;8.126;2022-11-20T06:30:13;40.63;;;16.37;;
34491;SDS011;20737;49.908;8.126;2022-11-20T06:32:40;32.47;;;12.60;;
34491;SDS011;20737;49.908;8.126;2022-11-20T06:35:07;32.37;;;13.23;;
34491;SDS011;20737;49.908;8.126;2022-11-20T06:37:34;33.23;;;13.33;;
34491;SDS011;20737;49.908;8.126;2022-11-20T06:40:02;35.53;;;12.57;;
34491;SDS011;20737;49.908;8.126;2022-11-20T06:42:30;29.30;;;12.27;;
34491;SDS011;20737;49.908;8.126;2022-11-20T06:44:57;30.67;;;13.50;;
34491;SDS011;20737;49.908;8.126;2022-11-20T06:47:23;32.50;;;13.07;;
34491;SDS011;20737;49.908;8.126;2022-11-20T06:49:50;32.53;;;12.83;;
34491;SDS011;20737;49.908;8.126;2022-11-20T06:52:17;35.60;;;12.83;;
34491;SDS011;20737;49.908;8.126;2022-11-20T06:54:44;32.77;;;13.47;;
34491;SDS011;20737;49.908;8.126;2022-11-20T06:57:12;29.07;;;12.73;;
34491;SDS011;20737;49.908;8.126;2022-11-20T06:59:38;30.13;;;12.33;;
34491;SDS011;20737;49.908;8.126;2022-11-20T07:02:05;31.00;;;12.43;;
34491;SDS011;20737;49.908;8.126;2022-11-20T07:04:34;38.53;;;13.10;;
34491;SDS011;20737;49.908;8.126;2022-11-20T07:07:01;29.33;;;12.50;;
34491;SDS011;20737;49.908;8.126;2022-11-20T07:09:28;25.80;;;11.73;;
34491;SDS011;20737;49.908;8.126;2022-11-20T07:11:55;34.07;;;14.17;;
34491;SDS011;20737;49.908;8.126;2022-11-20T07:14:23;28.73;;;12.30;;
34491;SDS011;20737;49.908;8.126;2022-11-20T07:16:49;29.37;;;12.63;;
34491;SDS011;20737;49.908;8.126;2022-11-20T07:19:16;30.93;;;12.53;;
34491;SDS011;20737;49.908;8.126;2022-11-20T07:21:43;31.43;;;13.10;;
34491;SDS011;20737;49.908;8.126;2022-11-20T07:24:09;26.83;;;11.27;;
34491;SDS011;20737;49.908;8.126;2022-11-20T07:26:36;25.97;;;10.47;;
34491;SDS011;20737;49.908;8.126;2022-11-20T07:29:03;30.50;;;12.97;;
34491;SDS011;20737;49.908;8.126;2022-11-20T07:31:31;25.27;;;12.73;;
34491;SDS011;20737;49.908;8.126;2022-11-20T07:33:58;30.27;;;11.63;;
34491;SDS011;20737;49.908;8.126;2022-11-20T07:36:24;25.37;;;11.70;;
34491;SDS011;20737;49.908;8.126;2022-11-20T07:38:51;24.13;;;11.30;;
34491;SDS011;20737;49.908;8.126;2022-11-20T07:41:19;28.90;;;12.20;;
34491;SDS011;20737;49.908;8.126;2022-11-20T07:43:46;27.30;;;11.30;;
34491;SDS011;20737;49.908;8.126;2022-11-20T07:46:12;28.80;;;12.53;;
34491;SDS011;20737;49.908;8.126;2022-11-20T07:48:40;30.83;;;13.23;;
34491;SDS011;20737;49.908;8.126;2022-11-20T07:51:07;31.47;;;11.90;;
34491;SDS011;20737;49.908;8.126;2022-11-20T07:53:34;28.73;;;12.50;;
34491;SDS011;20737;49.908;8.126;2022-11-20T07:56:01;28.83;;;11.73;;
34491;SDS011;20737;49.908;8.126;2022-11-20T07:58:28;26.33;;;11.57;;
34491;SDS011;20737;49.908;8.126;2022-11-20T08:00:57;28.23;;;12.67;;
34491;SDS011;20737;49.908;8.126;2022-11-20T08:03:24;25.67;;;11.87;;
34491;SDS011;20737;49.908;8.126;2022-11-20T08:05:52;25.47;;;11.47;;
34491;SDS011;20737;49.908;8.126;2022-11-20T08:08:19;26.57;;;13.40;;
34491;SDS011;20737;49.908;8.126;2022-11-20T08:10:46;22.57;;;10.27;;
34491;SDS011;20737;49.908;8.126;2022-11-20T08:13:13;23.70;;;11.37;;
34491;SDS011;20737;49.908;8.126;2022-11-20T08:15:57;22.00;;;10.60;;
34491;SDS011;20737;49.908;8.126;2022-11-20T08:18:24;24.00;;;10.27;;
34491;SDS011;20737;49.908;8.126;2022-11-20T08:20:52;24.90;;;10.40;;
34491;SDS011;20737;49.908;8.126;2022-11-20T08:23:19;22.57;;;10.30;;
34491;SDS011;20737;49.908;8.126;2022-11-20T08:25:48;26.90;;;11.87;;
34491;SDS011;20737;49.908;8.126;2022-11-20T08:28:16;22.67;;;10.00;;
34491;SDS011;20737;49.908;8.126;2022-11-20T08:30:42;22.87;;;10.60;;
34491;SDS011;20737;49.908;8.126;2022-11-20T08:33:10;25.80;;;11.47;;
34491;SDS011;20737;49.908;8.126;2022-11-20T08:35:37;26.10;;;11.33;;
34491;SDS011;20737;49.908;8.126;2022-11-20T08:38:08;24.27;;;11.53;;
34491;SDS011;20737;49.908;8.126;2022-11-20T08:40:35;27.57;;;12.97;;
34491;SDS011;20737;49.908;8.126;2022-11-20T08:43:01;28.67;;;10.83;;
34491;SDS011;20737;49.908;8.126;2022-11-20T08:45:28;23.53;;;11.13;;
34491;SDS011;20737;49.908;8.126;2022-11-20T08:47:59;22.27;;;10.37;;
34491;SDS011;20737;49.908;8.126;2022-11-20T08:50:26;21.63;;;10.47;;
34491;SDS011;20737;49.908;8.126;2022-11-20T08:52:52;22.73;;;10.40;;
34491;SDS011;20737;49.908;8.126;2022-11-20T08:55:20;20.77;;;10.43;;
34491;SDS011;20737;49.908;8.126;2022-11-20T08:57:47;22.83;;;11.30;;
34491;SDS011;20737;49.908;8.126;2022-11-20T09:00:14;18.90;;;9.27;;
34491;SDS011;20737;49.908;8.126;2022-11-20T09:02:42;20.30;;;10.10;;
34491;SDS011;20737;49.908;8.126;2022-11-20T09:05:09;20.33;;;9.97;;
34491;SDS011;20737;49.908;8.126;2022-11-20T09:07:35;22.97;;;10.10;;
34491;SDS011;20737;49.908;8.126;2022-11-20T09:10:02;22.90;;;10.87;;
34491;SDS011;20737;49.908;8.126;2022-11-20T09:12:31;25.10;;;12.20;;
34491;SDS011;20737;49.908;8.126;2022-11-20T09:14:57;22.47;;;10.80;;
34491;SDS011;20737;49.908;8.126;2022-11-20T09:17:24;23.73;;;10.60;;
34491;SDS011;20737;49.908;8.126;2022-11-20T09:19:51;21.93;;;10.43;;
34491;SDS011;20737;49.908;8.126;2022-11-20T09:22:18;23.30;;;10.63;;
34491;SDS011;20737;49.908;8.126;2022-11-20T09:24:44;22.10;;;10.50;;
34491;SDS011;20737;49.908;8.126;2022-11-20T09:27:11;20.67;;;10.27;;
34491;SDS011;20737;49.908;8.126;2022-11-20T09:29:39;24.20;;;10.57;;
34491;SDS011;20737;49.908;8.126;2022-11-20T09:32:06;26.37;;;12.07;;
34491;SDS011;20737;49.908;8.126;2022-11-20T09:34:33;21.57;;;10.20;;
34491;SDS011;20737;49.908;8.126;2022-11-20T09:36:59;26.27;;;12.23;;
34491;SDS011;20737;49.908;8.126;2022-11-20T09:39:26;24.83;;;10.80;;
34491;SDS011;20737;49.908;8.126;2022-11-20T09:41:56;24.05;;;11.38;;
34491;SDS011;20737;49.908;8.126;2022-11-20T09:44:51;19.87;;;9.80;;
34491;SDS011;20737;49.908;8.126;2022-11-20T09:47:33;20.77;;;9.23;;
34491;SDS011;20737;49.908;8.126;2022-11-20T09:50:16;22.40;;;10.70;;
34491;SDS011;20737;49.908;8.126;2022-11-20T09:52:53;22.03;;;9.67;;
34491;SDS011;20737;49.908;8.126;2022-11-20T09:55:28;25.77;;;11.10;;
34491;SDS011;20737;49.908;8.126;2022-11-20T09:57:56;24.00;;;10.20;;
34491;SDS011;20737;49.908;8.126;2022-11-20T10:00:26;23.67;;;10.07;;
34491;SDS011;20737;49.908;8.126;2022-11-20T10:02:55;25.23;;;10.73;;
34491;SDS011;20737;49.908;8.126;2022-11-20T10:05:28;22.33;;;10.55;;
34491;SDS011;20737;49.908;8.126;2022-11-20T10:08:04;23.97;;;10.87;;
34491;SDS011;20737;49.908;8.126;2022-11-20T10:10:40;22.42;;;10.07;;
34491;SDS011;20737;49.908;8.126;2022-11-20T10:13:14;25.27;;;10.15;;
34491;SDS011;20737;49.908;8.126;2022-11-20T10:15:55;21.77;;;10.00;;
34491;SDS011;20737;49.908;8.126;2022-11-20T10:18:33;21.07;;;10.03;;
34491;SDS011;20737;49.908;8.126;2022-11-20T10:21:08;17.98;;;9.13;;
34491;SDS011;20737;49.908;8.126;2022-11-20T10:26:37;19.95;;;9.82;;
34491;SDS011;20737;49.908;8.126;2022-11-20T10:29:12;21.37;;;9.90;;
34491;SDS011;20737;49.908;8.126;2022-11-20T10:31:42;22.57;;;11.20;;
34491;SDS011;20737;49.908;8.126;2022-11-20T10:34:14;19.63;;;9.98;;
34491;SDS011;20737;49.908;8.126;2022-11-20T10:36:46;21.57;;;9.93;;
34491;SDS011;20737;49.908;8.126;2022-11-20T10:39:19;21.15;;;8.63;;
34491;SDS011;20737;49.908;8.126;2022-11-20T10:41:53;21.10;;;10.37;;
34491;SDS011;20737;49.908;8.126;2022-11-20T10:44:20;19.30;;;9.27;;
34491;SDS011;20737;49.908;8.126;2022-11-20T10:47:04;18.07;;;8.83;;
34491;SDS011;20737;49.908;8.126;2022-11-20T10:49:36;17.00;;;8.88;;
34491;SDS011;20737;49.908;8.126;2022-11-20T10:52:07;19.58;;;9.40;;
34491;SDS011;20737;49.908;8.126;2022-11-20T10:54:41;21.10;;;9.48;;
34491;SDS011;20737;49.908;8.126;2022-11-20T10:57:17;16.08;;;9.48;;
34491;SDS011;20737;49.908;8.126;2022-11-20T10:59:55;20.10;;;9.05;;
34491;SDS011;20737;49.908;8.126;2022-11-20T11:02:34;19.70;;;8.52;;
34491;SDS011;20737;49.908;8.126;2022-11-20T11:05:08;14.90;;;7.70;;
34491;SDS011;20737;49.908;8.126;2022-11-20T11:07:41;17.65;;;8.48;;
34491;SDS011;20737;49.908;8.126;2022-11-20T11:10:13;17.08;;;8.05;;
34491;SDS011;20737;49.908;8.126;2022-11-20T11:12:46;14.18;;;7.53;;
34491;SDS011;20737;49.908;8.126;2022-11-20T11:15:14;17.70;;;8.98;;
34491;SDS011;20737;49.908;8.126;2022-11-20T11:17:53;13.57;;;7.70;;
34491;SDS011;20737;49.908;8.126;2022-11-20T11:20:20;14.73;;;7.60;;
34491;SDS011;20737;49.908;8.126;2022-11-20T11:22:49;16.35;;;8.50;;
34491;SDS011;20737;49.908;8.126;2022-11-20T11:25:18;17.85;;;8.95;;
34491;SDS011;20737;49.908;8.126;2022-11-20T11:27:54;16.52;;;8.40;;
34491;SDS011;20737;49.908;8.126;2022-11-20T11:30:22;15.88;;;9.05;;
34491;SDS011;20737;49.908;8.126;2022-11-20T11:32:50;20.40;;;10.68;;
34491;SDS011;20737;49.908;8.126;2022-11-20T11:35:29;14.90;;;8.40;;
34491;SDS011;20737;49.908;8.126;2022-11-20T11:38:02;16.40;;;7.85;;
34491;SDS011;20737;49.908;8.126;2022-11-20T11:40:32;14.05;;;8.25;;
34491;SDS011;20737;49.908;8.126;2022-11-20T11:43:01;13.30;;;7.85;;
34491;SDS011;20737;49.908;8.126;2022-11-20T11:45:30;16.10;;;8.68;;
34491;SDS011;20737;49.908;8.126;2022-11-20T11:47:57;16.40;;;8.65;;
34491;SDS011;20737;49.908;8.126;2022-11-20T11:50:27;18.13;;;9.23;;
34491;SDS011;20737;49.908;8.126;2022-11-20T11:53:05;16.40;;;9.05;;
34491;SDS011;20737;49.908;8.126;2022-11-20T11:55:39;15.98;;;7.28;;
34491;SDS011;20737;49.908;8.126;2022-11-20T11:58:11;15.60;;;8.07;;
34491;SDS011;20737;49.908;8.126;2022-11-20T12:03:14;13.93;;;7.70;;
34491;SDS011;20737;49.908;8.126;2022-11-20T12:05:47;17.15;;;9.05;;
34491;SDS011;20737;49.908;8.126;2022-11-20T12:08:21;19.15;;;10.02;;
34491;SDS011;20737;49.908;8.126;2022-11-20T12:10:53;19.73;;;9.93;;
34491;SDS011;20737;49.908;8.126;2022-11-20T12:16:02;17.77;;;8.45;;
34491;SDS011;20737;49.908;8.126;2022-11-20T12:18:30;19.95;;;9.60;;
34491;SDS011;20737;49.908;8.126;2022-11-20T12:21:02;18.85;;;8.18;;
34491;SDS011;20737;49.908;8.126;2022-11-20T12:23:39;17.17;;;8.98;;
34491;SDS011;20737;49.908;8.126;2022-11-20T12:26:17;17.60;;;8.50;;
34491;SDS011;20737;49.908;8.126;2022-11-20T12:28:56;19.73;;;9.55;;
34491;SDS011;20737;49.908;8.126;2022-11-20T12:31:42;17.60;;;8.77;;
34491;SDS011;20737;49.908;8.126;2022-11-20T12:34:37;18.40;;;9.50;;
34491;SDS011;20737;49.908;8.126;2022-11-20T12:37:14;14.07;;;8.05;;
34491;SDS011;20737;49.908;8.126;2022-11-20T12:39:50;16.23;;;8.75;;
34491;SDS011;20737;49.908;8.126;2022-11-20T12:42:23;16.48;;;8.63;;
34491;SDS011;20737;49.908;8.126;2022-11-20T12:45:30;15.10;;;8.05;;
34491;SDS011;20737;49.908;8.126;2022-11-20T12:51:18;16.50;;;8.48;;
34491;SDS011;20737;49.908;8.126;2022-11-20T12:56:57;19.42;;;9.55;;
34491;SDS011;20737;49.908;8.126;2022-11-20T12:59:34;23.42;;;10.40;;
34491;SDS011;20737;49.908;8.126;2022-11-20T13:02:18;21.00;;;11.00;;
34491;SDS011;20737;49.908;8.126;2022-11-20T13:07:41;23.95;;;10.35;;
34491;SDS011;20737;49.908;8.126;2022-11-20T13:10:14;21.50;;;11.02;;
34491;SDS011;20737;49.908;8.126;2022-11-20T13:12:46;21.13;;;10.25;;
34491;SDS011;20737;49.908;8.126;2022-11-20T13:15:17;21.55;;;10.80;;
34491;SDS011;20737;49.908;8.126;2022-11-20T13:17:58;21.80;;;10.32;;
34491;SDS011;20737;49.908;8.126;2022-11-20T13:20:26;19.83;;;9.88;;
34491;SDS011;20737;49.908;8.126;2022-11-20T13:22:55;19.10;;;9.30;;
34491;SDS011;20737;49.908;8.126;2022-11-20T13:25:25;19.70;;;9.80;;
34491;SDS011;20737;49.908;8.126;2022-11-20T13:27:53;19.67;;;9.07;;
34491;SDS011;20737;49.908;8.126;2022-11-20T13:30:22;20.83;;;9.30;;
34491;SDS011;20737;49.908;8.126;2022-11-20T13:32:53;19.70;;;10.38;;
34491;SDS011;20737;49.908;8.126;2022-11-20T13:35:25;18.75;;;9.70;;
34491;SDS011;20737;49.908;8.126;2022-11-20T13:38:04;20.25;;;10.45;;
34491;SDS011;20737;49.908;8.126;2022-11-20T13:40:34;22.33;;;11.15;;
34491;SDS011;20737;49.908;8.126;2022-11-20T13:43:15;21.60;;;11.30;;
34491;SDS011;20737;49.908;8.126;2022-11-20T13:45:54;22.42;;;11.82;;
34491;SDS011;20737;49.908;8.126;2022-11-20T13:48:26;22.30;;;11.48;;
34491;SDS011;20737;49.908;8.126;2022-11-20T13:54:04;20.75;;;10.18;;
34491;SDS011;20737;49.908;8.126;2022-11-20T13:56:46;19.73;;;10.95;;
34491;SDS011;20737;49.908;8.126;2022-11-20T13:59:24;23.98;;;11.48;;
34491;SDS011;20737;49.908;8.126;2022-11-20T14:01:59;25.15;;;10.95;;
34491;SDS011;20737;49.908;8.126;2022-11-20T14:04:27;21.48;;;10.73;;
34491;SDS011;20737;49.908;8.126;2022-11-20T14:06:58;21.27;;;10.65;;
34491;SDS011;20737;49.908;8.126;2022-11-20T14:09:26;18.08;;;10.38;;
34491;SDS011;20737;49.908;8.126;2022-11-20T14:11:55;21.60;;;10.93;;
34491;SDS011;20737;49.908;8.126;2022-11-20T14:14:23;22.65;;;11.27;;
34491;SDS011;20737;49.908;8.126;2022-11-20T14:16:51;20.45;;;10.85;;
34491;SDS011;20737;49.908;8.126;2022-11-20T14:19:23;19.13;;;10.45;;
34491;SDS011;20737;49.908;8.126;2022-11-20T14:21:53;20.73;;;11.07;;
34491;SDS011;20737;49.908;8.126;2022-11-20T14:24:32;24.42;;;11.85;;
34491;SDS011;20737;49.908;8.126;2022-11-20T14:27:00;23.38;;;12.48;;
34491;SDS011;20737;49.908;8.126;2022-11-20T14:29:28;21.27;;;12.13;;
34491;SDS011;20737;49.908;8.126;2022-11-20T14:31:59;24.25;;;11.52;;
34491;SDS011;20737;49.908;8.126;2022-11-20T14:34:28;20.60;;;11.45;;
34491;SDS011;20737;49.908;8.126;2022-11-20T14:36:57;18.42;;;9.57;;
34491;SDS011;20737;49.908;8.126;2022-11-20T14:39:27;16.88;;;9.07;;
34491;SDS011;20737;49.908;8.126;2022-11-20T14:41:57;19.75;;;9.73;;
34491;SDS011;20737;49.908;8.126;2022-11-20T14:44:27;23.92;;;10.45;;
34491;SDS011;20737;49.908;8.126;2022-11-20T14:46:56;22.90;;;10.25;;
34491;SDS011;20737;49.908;8.126;2022-11-20T14:49:24;23.20;;;10.85;;
34491;SDS011;20737;49.908;8.126;2022-11-20T14:51:58;17.17;;;10.02;;
34491;SDS011;20737;49.908;8.126;2022-11-20T14:54:25;20.75;;;10.13;;
34491;SDS011;20737;49.908;8.126;2022-11-20T14:56:53;24.23;;;12.48;;